sensor_id;sensor_type;location;lat;lon;timestamp;P1;durP1;ratioP1;P2;durP2;ratioP2
5127;SDS011;2582;48.770;9.190;2023-05-07T00:01:05;2.43;;;2.23;;
5127;SDS011;2582;48.770;9.190;2023-05-07T00:03:31;3.10;;;2.60;;
5127;SDS011;2582;48.770;9.190;2023-05-07T00:05:57;2.70;;;2.50;;
5127;SDS011;2582;48.770;9.190;2023-05-07T00:08:23;2.13;;;2.03;;
5127;SDS011;2582;48.770;9.190;2023-05-07T00:10:49;3.00;;;2.60;;
5127;SDS011;2582;48.770;9.190;2023-05-07T00:13:14;3.03;;;2.83;;
5127;SDS011;2582;48.770;9.190;2023-05-07T00:15:40;3.40;;;2.97;;
5127;SDS011;2582;48.770;9.190;2023-05-07T00:18:05;2.73;;;2.53;;
5127;SDS011;2582;48.770;9.190;2023-05-07T00:20:31;3.50;;;2.33;;
5127;SDS011;2582;48.770;9.190;2023-05-07T00:22:57;3.97;;;2.30;;
5127;SDS011;2582;48.770;9.190;2023-05-07T00:25:22;3.97;;;2.60;;
5127;SDS011;2582;48.770;9.190;2023-05-07T00:27:48;2.63;;;2.43;;
5127;SDS011;2582;48.770;9.190;2023-05-07T00:30:13;4.17;;;2.50;;
5127;SDS011;2582;48.770;9.190;2023-05-07T00:32:39;2.90;;;2.70;;
5127;SDS011;2582;48.770;9.190;2023-05-07T00:35:05;2.63;;;2.10;;
5127;SDS011;2582;48.770;9.190;2023-05-07T00:37:31;4.00;;;2.70;;
5127;SDS011;2582;48.770;9.190;2023-05-07T00:39:57;2.83;;;2.63;;
5127;SDS011;2582;48.770;9.190;2023-05-07T00:42:22;3.20;;;2.50;;
5127;SDS011;2582;48.770;9.190;2023-05-07T00:44:49;3.37;;;3.17;;
5127;SDS011;2582;48.770;9.190;2023-05-07T00:47:15;2.87;;;2.60;;
5127;SDS011;2582;48.770;9.190;2023-05-07T00:49:42;2.90;;;2.70;;
5127;SDS011;2582;48.770;9.190;2023-05-07T00:52:09;3.30;;;3.00;;
5127;SDS011;2582;48.770;9.190;2023-05-07T00:54:37;4.50;;;3.23;;
5127;SDS011;2582;48.770;9.190;2023-05-07T00:57:05;3.13;;;2.83;;
5127;SDS011;2582;48.770;9.190;2023-05-07T00:59:31;2.77;;;2.57;;
5127;SDS011;2582;48.770;9.190;2023-05-07T01:01:57;3.03;;;2.50;;
5127;SDS011;2582;48.770;9.190;2023-05-07T01:04:23;3.10;;;2.40;;
5127;SDS011;2582;48.770;9.190;2023-05-07T01:06:49;2.87;;;2.67;;
5127;SDS011;2582;48.770;9.190;2023-05-07T01:09:15;2.83;;;2.53;;
5127;SDS011;2582;48.770;9.190;2023-05-07T01:11:41;2.77;;;2.57;;
5127;SDS011;2582;48.770;9.190;2023-05-07T01:14:08;2.83;;;2.63;;
5127;SDS011;2582;48.770;9.190;2023-05-07T01:16:36;3.10;;;2.80;;
5127;SDS011;2582;48.770;9.190;2023-05-07T01:19:01;3.00;;;2.80;;
5127;SDS011;2582;48.770;9.190;2023-05-07T01:21:28;4.03;;;2.80;;
5127;SDS011;2582;48.770;9.190;2023-05-07T01:23:58;3.47;;;3.13;;
5127;SDS011;2582;48.770;9.190;2023-05-07T01:26:24;3.23;;;2.97;;
5127;SDS011;2582;48.770;9.190;2023-05-07T01:28:50;3.27;;;2.97;;
5127;SDS011;2582;48.770;9.190;2023-05-07T01:31:15;3.63;;;2.90;;
5127;SDS011;2582;48.770;9.190;2023-05-07T01:33:42;3.20;;;2.90;;
5127;SDS011;2582;48.770;9.190;2023-05-07T01:36:09;2.80;;;2.60;;
5127;SDS011;2582;48.770;9.190;2023-05-07T01:38:37;3.50;;;3.20;;
5127;SDS011;2582;48.770;9.190;2023-05-07T01:41:05;3.40;;;2.70;;
5127;SDS011;2582;48.770;9.190;2023-05-07T01:43:31;3.00;;;2.70;;
5127;SDS011;2582;48.770;9.190;2023-05-07T01:45:58;2.73;;;2.53;;
5127;SDS011;2582;48.770;9.190;2023-05-07T01:48:24;2.70;;;2.50;;
5127;SDS011;2582;48.770;9.190;2023-05-07T01:50:51;3.10;;;2.80;;
5127;SDS011;2582;48.770;9.190;2023-05-07T01:53:17;3.90;;;3.43;;
5127;SDS011;2582;48.770;9.190;2023-05-07T01:55:42;3.30;;;3.03;;
5127;SDS011;2582;48.770;9.190;2023-05-07T01:58:08;4.83;;;2.80;;
5127;SDS011;2582;48.770;9.190;2023-05-07T02:00:33;2.97;;;2.67;;
5127;SDS011;2582;48.770;9.190;2023-05-07T02:02:59;2.83;;;2.63;;
5127;SDS011;2582;48.770;9.190;2023-05-07T02:05:24;3.40;;;3.10;;
5127;SDS011;2582;48.770;9.190;2023-05-07T02:07:50;2.60;;;2.40;;
5127;SDS011;2582;48.770;9.190;2023-05-07T02:10:16;3.77;;;2.80;;
5127;SDS011;2582;48.770;9.190;2023-05-07T02:12:41;4.17;;;2.90;;
5127;SDS011;2582;48.770;9.190;2023-05-07T02:15:07;3.43;;;3.07;;
5127;SDS011;2582;48.770;9.190;2023-05-07T02:17:33;3.33;;;3.07;;
5127;SDS011;2582;48.770;9.190;2023-05-07T02:19:59;3.03;;;2.73;;
5127;SDS011;2582;48.770;9.190;2023-05-07T02:22:24;3.57;;;3.27;;
5127;SDS011;2582;48.770;9.190;2023-05-07T02:24:50;3.33;;;3.03;;
5127;SDS011;2582;48.770;9.190;2023-05-07T02:27:16;4.13;;;3.20;;
5127;SDS011;2582;48.770;9.190;2023-05-07T02:29:41;4.43;;;3.13;;
5127;SDS011;2582;48.770;9.190;2023-05-07T02:32:07;3.30;;;2.77;;
5127;SDS011;2582;48.770;9.190;2023-05-07T02:34:33;3.37;;;3.07;;
5127;SDS011;2582;48.770;9.190;2023-05-07T02:36:58;4.20;;;3.43;;
5127;SDS011;2582;48.770;9.190;2023-05-07T02:39:24;4.63;;;3.57;;
5127;SDS011;2582;48.770;9.190;2023-05-07T02:41:50;3.40;;;3.10;;
5127;SDS011;2582;48.770;9.190;2023-05-07T02:44:15;3.40;;;3.10;;
5127;SDS011;2582;48.770;9.190;2023-05-07T02:46:41;6.80;;;3.90;;
5127;SDS011;2582;48.770;9.190;2023-05-07T02:49:06;6.50;;;3.13;;
5127;SDS011;2582;48.770;9.190;2023-05-07T02:51:32;4.30;;;3.90;;
5127;SDS011;2582;48.770;9.190;2023-05-07T02:53:57;4.07;;;3.67;;
5127;SDS011;2582;48.770;9.190;2023-05-07T02:56:25;5.20;;;4.70;;
5127;SDS011;2582;48.770;9.190;2023-05-07T02:58:51;5.27;;;4.03;;
5127;SDS011;2582;48.770;9.190;2023-05-07T03:01:16;4.50;;;4.00;;
5127;SDS011;2582;48.770;9.190;2023-05-07T03:03:42;4.17;;;3.80;;
5127;SDS011;2582;48.770;9.190;2023-05-07T03:06:07;4.00;;;3.70;;
5127;SDS011;2582;48.770;9.190;2023-05-07T03:08:33;6.07;;;3.47;;
5127;SDS011;2582;48.770;9.190;2023-05-07T03:10:59;3.77;;;3.40;;
5127;SDS011;2582;48.770;9.190;2023-05-07T03:13:24;3.63;;;3.33;;
5127;SDS011;2582;48.770;9.190;2023-05-07T03:15:50;5.70;;;3.87;;
5127;SDS011;2582;48.770;9.190;2023-05-07T03:18:15;3.87;;;3.40;;
5127;SDS011;2582;48.770;9.190;2023-05-07T03:20:41;4.30;;;3.03;;
5127;SDS011;2582;48.770;9.190;2023-05-07T03:23:07;3.20;;;2.90;;
5127;SDS011;2582;48.770;9.190;2023-05-07T03:25:32;3.83;;;3.40;;
5127;SDS011;2582;48.770;9.190;2023-05-07T03:27:58;3.37;;;3.00;;
5127;SDS011;2582;48.770;9.190;2023-05-07T03:30:24;3.50;;;3.20;;
5127;SDS011;2582;48.770;9.190;2023-05-07T03:32:50;2.80;;;2.60;;
5127;SDS011;2582;48.770;9.190;2023-05-07T03:35:15;3.27;;;2.97;;
5127;SDS011;2582;48.770;9.190;2023-05-07T03:37:41;4.20;;;2.73;;
5127;SDS011;2582;48.770;9.190;2023-05-07T03:40:07;2.77;;;2.57;;
5127;SDS011;2582;48.770;9.190;2023-05-07T03:42:35;4.47;;;3.10;;
5127;SDS011;2582;48.770;9.190;2023-05-07T03:45:00;3.97;;;3.40;;
5127;SDS011;2582;48.770;9.190;2023-05-07T03:47:26;4.77;;;3.03;;
5127;SDS011;2582;48.770;9.190;2023-05-07T03:49:51;3.80;;;3.50;;
5127;SDS011;2582;48.770;9.190;2023-05-07T03:52:18;4.10;;;3.00;;
5127;SDS011;2582;48.770;9.190;2023-05-07T03:54:48;4.57;;;3.07;;
5127;SDS011;2582;48.770;9.190;2023-05-07T03:57:14;3.10;;;2.90;;
5127;SDS011;2582;48.770;9.190;2023-05-07T03:59:40;5.83;;;3.37;;
5127;SDS011;2582;48.770;9.190;2023-05-07T04:02:05;3.00;;;2.80;;
5127;SDS011;2582;48.770;9.190;2023-05-07T04:04:31;3.10;;;2.70;;
5127;SDS011;2582;48.770;9.190;2023-05-07T04:06:57;4.70;;;3.20;;
5127;SDS011;2582;48.770;9.190;2023-05-07T04:09:24;4.20;;;3.27;;
5127;SDS011;2582;48.770;9.190;2023-05-07T04:11:50;3.20;;;2.90;;
5127;SDS011;2582;48.770;9.190;2023-05-07T04:14:15;3.50;;;2.80;;
5127;SDS011;2582;48.770;9.190;2023-05-07T04:16:41;3.50;;;3.20;;
5127;SDS011;2582;48.770;9.190;2023-05-07T04:19:06;3.47;;;3.17;;
5127;SDS011;2582;48.770;9.190;2023-05-07T04:21:32;3.87;;;3.30;;
5127;SDS011;2582;48.770;9.190;2023-05-07T04:23:57;3.77;;;2.60;;
5127;SDS011;2582;48.770;9.190;2023-05-07T04:26:23;4.00;;;3.00;;
5127;SDS011;2582;48.770;9.190;2023-05-07T04:28:49;2.93;;;2.73;;
5127;SDS011;2582;48.770;9.190;2023-05-07T04:31:15;3.10;;;2.80;;
5127;SDS011;2582;48.770;9.190;2023-05-07T04:33:41;5.60;;;3.57;;
5127;SDS011;2582;48.770;9.190;2023-05-07T04:36:07;4.43;;;4.03;;
5127;SDS011;2582;48.770;9.190;2023-05-07T04:38:32;4.20;;;3.80;;
5127;SDS011;2582;48.770;9.190;2023-05-07T04:41:02;5.30;;;3.87;;
5127;SDS011;2582;48.770;9.190;2023-05-07T04:43:29;6.53;;;4.60;;
5127;SDS011;2582;48.770;9.190;2023-05-07T04:45:54;5.17;;;3.87;;
5127;SDS011;2582;48.770;9.190;2023-05-07T04:48:20;4.23;;;3.83;;
5127;SDS011;2582;48.770;9.190;2023-05-07T04:50:51;5.07;;;4.17;;
5127;SDS011;2582;48.770;9.190;2023-05-07T04:53:17;3.90;;;3.50;;
5127;SDS011;2582;48.770;9.190;2023-05-07T04:55:44;4.10;;;3.67;;
5127;SDS011;2582;48.770;9.190;2023-05-07T04:58:10;4.00;;;3.70;;
5127;SDS011;2582;48.770;9.190;2023-05-07T05:00:36;4.40;;;3.50;;
5127;SDS011;2582;48.770;9.190;2023-05-07T05:03:03;3.50;;;3.20;;
5127;SDS011;2582;48.770;9.190;2023-05-07T05:05:30;5.50;;;3.80;;
5127;SDS011;2582;48.770;9.190;2023-05-07T05:07:55;4.70;;;4.13;;
5127;SDS011;2582;48.770;9.190;2023-05-07T05:10:21;4.10;;;3.80;;
5127;SDS011;2582;48.770;9.190;2023-05-07T05:12:47;4.00;;;3.70;;
5127;SDS011;2582;48.770;9.190;2023-05-07T05:15:12;5.87;;;4.60;;
5127;SDS011;2582;48.770;9.190;2023-05-07T05:17:38;5.90;;;4.30;;
5127;SDS011;2582;48.770;9.190;2023-05-07T05:20:04;4.73;;;4.00;;
5127;SDS011;2582;48.770;9.190;2023-05-07T05:22:30;3.70;;;3.40;;
5127;SDS011;2582;48.770;9.190;2023-05-07T05:24:56;4.73;;;4.23;;
5127;SDS011;2582;48.770;9.190;2023-05-07T05:27:22;4.80;;;3.73;;
5127;SDS011;2582;48.770;9.190;2023-05-07T05:29:48;5.50;;;3.27;;
5127;SDS011;2582;48.770;9.190;2023-05-07T05:32:13;3.60;;;3.30;;
5127;SDS011;2582;48.770;9.190;2023-05-07T05:34:39;6.67;;;3.90;;
5127;SDS011;2582;48.770;9.190;2023-05-07T05:37:05;3.77;;;3.43;;
5127;SDS011;2582;48.770;9.190;2023-05-07T05:39:31;4.50;;;3.63;;
5127;SDS011;2582;48.770;9.190;2023-05-07T05:41:56;4.20;;;3.80;;
5127;SDS011;2582;48.770;9.190;2023-05-07T05:44:22;5.87;;;3.60;;
5127;SDS011;2582;48.770;9.190;2023-05-07T05:46:47;3.50;;;3.20;;
5127;SDS011;2582;48.770;9.190;2023-05-07T05:49:14;3.03;;;2.83;;
5127;SDS011;2582;48.770;9.190;2023-05-07T05:51:40;3.87;;;3.57;;
5127;SDS011;2582;48.770;9.190;2023-05-07T05:54:06;4.70;;;4.30;;
5127;SDS011;2582;48.770;9.190;2023-05-07T05:56:31;3.87;;;3.47;;
5127;SDS011;2582;48.770;9.190;2023-05-07T05:58:57;4.03;;;3.63;;
5127;SDS011;2582;48.770;9.190;2023-05-07T06:01:23;6.00;;;4.40;;
5127;SDS011;2582;48.770;9.190;2023-05-07T06:03:49;4.70;;;3.90;;
5127;SDS011;2582;48.770;9.190;2023-05-07T06:06:14;4.10;;;3.70;;
5127;SDS011;2582;48.770;9.190;2023-05-07T06:08:40;6.13;;;3.60;;
5127;SDS011;2582;48.770;9.190;2023-05-07T06:11:06;4.97;;;4.47;;
5127;SDS011;2582;48.770;9.190;2023-05-07T06:13:31;5.30;;;4.80;;
5127;SDS011;2582;48.770;9.190;2023-05-07T06:15:57;5.80;;;5.30;;
5127;SDS011;2582;48.770;9.190;2023-05-07T06:18:23;6.00;;;5.50;;
5127;SDS011;2582;48.770;9.190;2023-05-07T06:20:48;6.80;;;5.53;;
5127;SDS011;2582;48.770;9.190;2023-05-07T06:23:14;6.63;;;6.10;;
5127;SDS011;2582;48.770;9.190;2023-05-07T06:25:39;5.30;;;4.77;;
5127;SDS011;2582;48.770;9.190;2023-05-07T06:28:05;5.57;;;5.07;;
5127;SDS011;2582;48.770;9.190;2023-05-07T06:30:31;6.83;;;6.27;;
5127;SDS011;2582;48.770;9.190;2023-05-07T06:32:56;6.00;;;5.50;;
5127;SDS011;2582;48.770;9.190;2023-05-07T06:35:22;6.93;;;6.23;;
5127;SDS011;2582;48.770;9.190;2023-05-07T06:37:47;5.70;;;5.20;;
5127;SDS011;2582;48.770;9.190;2023-05-07T06:40:13;7.20;;;6.50;;
5127;SDS011;2582;48.770;9.190;2023-05-07T06:42:38;5.77;;;5.27;;
5127;SDS011;2582;48.770;9.190;2023-05-07T06:45:04;6.70;;;5.90;;
5127;SDS011;2582;48.770;9.190;2023-05-07T06:47:30;7.60;;;6.90;;
5127;SDS011;2582;48.770;9.190;2023-05-07T06:49:56;6.67;;;6.07;;
5127;SDS011;2582;48.770;9.190;2023-05-07T06:52:21;7.50;;;6.80;;
5127;SDS011;2582;48.770;9.190;2023-05-07T06:54:47;6.40;;;5.77;;
5127;SDS011;2582;48.770;9.190;2023-05-07T06:57:12;7.40;;;6.67;;
5127;SDS011;2582;48.770;9.190;2023-05-07T06:59:38;6.20;;;5.63;;
5127;SDS011;2582;48.770;9.190;2023-05-07T07:02:03;7.50;;;6.80;;
5127;SDS011;2582;48.770;9.190;2023-05-07T07:04:29;7.53;;;6.60;;
5127;SDS011;2582;48.770;9.190;2023-05-07T07:06:55;7.23;;;6.63;;
5127;SDS011;2582;48.770;9.190;2023-05-07T07:09:21;8.10;;;6.70;;
5127;SDS011;2582;48.770;9.190;2023-05-07T07:11:47;7.33;;;6.63;;
5127;SDS011;2582;48.770;9.190;2023-05-07T07:14:12;7.63;;;6.70;;
5127;SDS011;2582;48.770;9.190;2023-05-07T07:16:39;7.77;;;7.07;;
5127;SDS011;2582;48.770;9.190;2023-05-07T07:19:04;7.80;;;7.00;;
5127;SDS011;2582;48.770;9.190;2023-05-07T07:21:30;8.20;;;6.30;;
5127;SDS011;2582;48.770;9.190;2023-05-07T07:23:56;8.00;;;6.43;;
5127;SDS011;2582;48.770;9.190;2023-05-07T07:26:22;8.60;;;7.53;;
5127;SDS011;2582;48.770;9.190;2023-05-07T07:28:48;7.37;;;6.70;;
5127;SDS011;2582;48.770;9.190;2023-05-07T07:31:13;6.40;;;5.80;;
5127;SDS011;2582;48.770;9.190;2023-05-07T07:33:40;7.57;;;5.40;;
5127;SDS011;2582;48.770;9.190;2023-05-07T07:36:06;6.10;;;5.60;;
5127;SDS011;2582;48.770;9.190;2023-05-07T07:38:32;6.27;;;5.00;;
5127;SDS011;2582;48.770;9.190;2023-05-07T07:40:58;6.37;;;5.77;;
5127;SDS011;2582;48.770;9.190;2023-05-07T07:43:25;6.23;;;5.63;;
5127;SDS011;2582;48.770;9.190;2023-05-07T07:45:50;9.90;;;5.40;;
5127;SDS011;2582;48.770;9.190;2023-05-07T07:48:16;8.83;;;6.00;;
5127;SDS011;2582;48.770;9.190;2023-05-07T07:50:41;5.77;;;5.23;;
5127;SDS011;2582;48.770;9.190;2023-05-07T07:53:07;7.97;;;5.67;;
5127;SDS011;2582;48.770;9.190;2023-05-07T07:55:34;5.27;;;4.77;;
5127;SDS011;2582;48.770;9.190;2023-05-07T07:58:03;6.40;;;5.80;;
5127;SDS011;2582;48.770;9.190;2023-05-07T08:00:29;7.57;;;6.13;;
5127;SDS011;2582;48.770;9.190;2023-05-07T08:02:55;5.27;;;4.63;;
5127;SDS011;2582;48.770;9.190;2023-05-07T08:05:20;5.60;;;4.67;;
5127;SDS011;2582;48.770;9.190;2023-05-07T08:07:46;5.07;;;4.67;;
5127;SDS011;2582;48.770;9.190;2023-05-07T08:10:16;4.57;;;4.17;;
5127;SDS011;2582;48.770;9.190;2023-05-07T08:12:46;4.90;;;4.50;;
5127;SDS011;2582;48.770;9.190;2023-05-07T08:15:15;4.23;;;3.83;;
5127;SDS011;2582;48.770;9.190;2023-05-07T08:17:41;4.60;;;4.03;;
5127;SDS011;2582;48.770;9.190;2023-05-07T08:20:07;5.80;;;3.57;;
5127;SDS011;2582;48.770;9.190;2023-05-07T08:22:36;4.73;;;3.50;;
5127;SDS011;2582;48.770;9.190;2023-05-07T08:25:02;4.27;;;3.87;;
5127;SDS011;2582;48.770;9.190;2023-05-07T08:27:28;4.27;;;3.87;;
5127;SDS011;2582;48.770;9.190;2023-05-07T08:29:54;4.80;;;4.07;;
5127;SDS011;2582;48.770;9.190;2023-05-07T08:32:19;4.60;;;3.60;;
5127;SDS011;2582;48.770;9.190;2023-05-07T08:34:45;8.70;;;4.13;;
5127;SDS011;2582;48.770;9.190;2023-05-07T08:37:12;3.90;;;3.60;;
5127;SDS011;2582;48.770;9.190;2023-05-07T08:39:37;4.03;;;3.73;;
5127;SDS011;2582;48.770;9.190;2023-05-07T08:42:03;3.57;;;3.27;;
5127;SDS011;2582;48.770;9.190;2023-05-07T08:44:33;3.60;;;3.30;;
5127;SDS011;2582;48.770;9.190;2023-05-07T08:47:00;4.03;;;3.60;;
5127;SDS011;2582;48.770;9.190;2023-05-07T08:49:27;4.93;;;3.57;;
5127;SDS011;2582;48.770;9.190;2023-05-07T08:51:54;3.97;;;3.37;;
5127;SDS011;2582;48.770;9.190;2023-05-07T08:54:21;3.70;;;3.40;;
5127;SDS011;2582;48.770;9.190;2023-05-07T08:56:46;3.70;;;3.40;;
5127;SDS011;2582;48.770;9.190;2023-05-07T08:59:12;3.50;;;3.20;;
5127;SDS011;2582;48.770;9.190;2023-05-07T09:01:38;3.67;;;3.37;;
5127;SDS011;2582;48.770;9.190;2023-05-07T09:04:04;3.33;;;3.03;;
5127;SDS011;2582;48.770;9.190;2023-05-07T09:06:31;4.57;;;4.00;;
5127;SDS011;2582;48.770;9.190;2023-05-07T09:08:57;3.73;;;3.43;;
5127;SDS011;2582;48.770;9.190;2023-05-07T09:11:26;3.63;;;3.00;;
5127;SDS011;2582;48.770;9.190;2023-05-07T09:13:55;3.67;;;3.37;;
5127;SDS011;2582;48.770;9.190;2023-05-07T09:16:23;3.90;;;3.60;;
5127;SDS011;2582;48.770;9.190;2023-05-07T09:18:50;4.47;;;2.90;;
5127;SDS011;2582;48.770;9.190;2023-05-07T09:21:17;3.70;;;2.83;;
5127;SDS011;2582;48.770;9.190;2023-05-07T09:23:44;5.70;;;2.87;;
5127;SDS011;2582;48.770;9.190;2023-05-07T09:26:09;3.20;;;3.00;;
5127;SDS011;2582;48.770;9.190;2023-05-07T09:28:40;3.40;;;3.10;;
5127;SDS011;2582;48.770;9.190;2023-05-07T09:31:06;6.17;;;2.83;;
5127;SDS011;2582;48.770;9.190;2023-05-07T09:33:33;3.00;;;2.70;;
5127;SDS011;2582;48.770;9.190;2023-05-07T09:36:01;2.90;;;2.60;;
5127;SDS011;2582;48.770;9.190;2023-05-07T09:38:28;3.20;;;2.90;;
5127;SDS011;2582;48.770;9.190;2023-05-07T09:41:03;7.17;;;3.00;;
5127;SDS011;2582;48.770;9.190;2023-05-07T09:43:37;2.60;;;2.40;;
5127;SDS011;2582;48.770;9.190;2023-05-07T09:46:06;2.90;;;2.70;;
5127;SDS011;2582;48.770;9.190;2023-05-07T09:48:37;3.87;;;3.07;;
5127;SDS011;2582;48.770;9.190;2023-05-07T09:51:29;3.90;;;2.93;;
5127;SDS011;2582;48.770;9.190;2023-05-07T09:54:02;2.87;;;2.50;;
5127;SDS011;2582;48.770;9.190;2023-05-07T09:56:29;2.97;;;2.60;;
5127;SDS011;2582;48.770;9.190;2023-05-07T09:58:56;2.70;;;2.50;;
5127;SDS011;2582;48.770;9.190;2023-05-07T10:01:25;2.83;;;2.53;;
5127;SDS011;2582;48.770;9.190;2023-05-07T10:03:52;3.40;;;2.50;;
5127;SDS011;2582;48.770;9.190;2023-05-07T10:06:17;5.10;;;2.50;;
5127;SDS011;2582;48.770;9.190;2023-05-07T10:08:47;3.30;;;3.00;;
5127;SDS011;2582;48.770;9.190;2023-05-07T10:11:14;3.80;;;3.20;;
5127;SDS011;2582;48.770;9.190;2023-05-07T10:13:41;3.07;;;2.77;;
5127;SDS011;2582;48.770;9.190;2023-05-07T10:16:07;3.40;;;3.10;;
5127;SDS011;2582;48.770;9.190;2023-05-07T10:18:33;3.10;;;2.80;;
5127;SDS011;2582;48.770;9.190;2023-05-07T10:21:18;4.30;;;2.70;;
5127;SDS011;2582;48.770;9.190;2023-05-07T10:23:45;3.20;;;2.67;;
5127;SDS011;2582;48.770;9.190;2023-05-07T10:26:14;3.57;;;3.27;;
5127;SDS011;2582;48.770;9.190;2023-05-07T10:28:43;2.80;;;2.60;;
5127;SDS011;2582;48.770;9.190;2023-05-07T10:31:27;5.80;;;3.53;;
5127;SDS011;2582;48.770;9.190;2023-05-07T10:34:08;2.63;;;2.43;;
5127;SDS011;2582;48.770;9.190;2023-05-07T10:36:37;3.13;;;2.23;;
5127;SDS011;2582;48.770;9.190;2023-05-07T10:39:04;3.00;;;2.60;;
5127;SDS011;2582;48.770;9.190;2023-05-07T10:41:31;3.17;;;2.87;;
5127;SDS011;2582;48.770;9.190;2023-05-07T10:43:57;3.13;;;2.40;;
5127;SDS011;2582;48.770;9.190;2023-05-07T10:46:26;2.93;;;2.73;;
5127;SDS011;2582;48.770;9.190;2023-05-07T10:49:13;2.70;;;2.50;;
5127;SDS011;2582;48.770;9.190;2023-05-07T10:51:37;2.80;;;2.60;;
5127;SDS011;2582;48.770;9.190;2023-05-07T10:56:35;4.00;;;2.30;;
5127;SDS011;2582;48.770;9.190;2023-05-07T11:04:17;6.70;;;2.40;;
5127;SDS011;2582;48.770;9.190;2023-05-07T11:12:17;4.47;;;2.50;;
5127;SDS011;2582;48.770;9.190;2023-05-07T11:15:01;3.00;;;2.67;;
5127;SDS011;2582;48.770;9.190;2023-05-07T11:17:30;2.47;;;1.93;;
5127;SDS011;2582;48.770;9.190;2023-05-07T11:20:00;2.43;;;2.10;;
5127;SDS011;2582;48.770;9.190;2023-05-07T11:25:04;2.33;;;2.10;;
5127;SDS011;2582;48.770;9.190;2023-05-07T11:27:31;2.73;;;2.20;;
5127;SDS011;2582;48.770;9.190;2023-05-07T11:29:57;2.10;;;1.90;;
5127;SDS011;2582;48.770;9.190;2023-05-07T11:32:24;2.50;;;2.27;;
5127;SDS011;2582;48.770;9.190;2023-05-07T11:34:51;3.37;;;2.93;;
5127;SDS011;2582;48.770;9.190;2023-05-07T11:37:18;3.80;;;2.27;;
5127;SDS011;2582;48.770;9.190;2023-05-07T11:39:44;2.47;;;2.27;;
5127;SDS011;2582;48.770;9.190;2023-05-07T11:42:29;2.40;;;2.20;;
5127;SDS011;2582;48.770;9.190;2023-05-07T11:44:56;3.87;;;2.60;;
5127;SDS011;2582;48.770;9.190;2023-05-07T11:47:22;3.20;;;2.73;;
5127;SDS011;2582;48.770;9.190;2023-05-07T11:49:52;2.63;;;1.90;;
5127;SDS011;2582;48.770;9.190;2023-05-07T11:52:18;2.60;;;2.40;;
5127;SDS011;2582;48.770;9.190;2023-05-07T11:54:49;4.30;;;3.10;;
5127;SDS011;2582;48.770;9.190;2023-05-07T11:57:15;3.03;;;2.47;;
5127;SDS011;2582;48.770;9.190;2023-05-07T11:59:40;2.77;;;2.20;;
5127;SDS011;2582;48.770;9.190;2023-05-07T12:02:07;3.40;;;2.50;;
5127;SDS011;2582;48.770;9.190;2023-05-07T12:04:33;3.30;;;2.13;;
5127;SDS011;2582;48.770;9.190;2023-05-07T12:06:59;3.10;;;2.40;;
5127;SDS011;2582;48.770;9.190;2023-05-07T12:09:25;2.63;;;2.43;;
5127;SDS011;2582;48.770;9.190;2023-05-07T12:11:51;2.93;;;2.50;;
5127;SDS011;2582;48.770;9.190;2023-05-07T12:14:17;4.13;;;3.67;;
5127;SDS011;2582;48.770;9.190;2023-05-07T12:16:43;4.40;;;3.10;;
5127;SDS011;2582;48.770;9.190;2023-05-07T12:19:10;4.60;;;3.67;;
5127;SDS011;2582;48.770;9.190;2023-05-07T12:21:37;3.50;;;2.90;;
5127;SDS011;2582;48.770;9.190;2023-05-07T12:24:03;9.23;;;4.17;;
5127;SDS011;2582;48.770;9.190;2023-05-07T12:26:29;5.03;;;3.20;;
5127;SDS011;2582;48.770;9.190;2023-05-07T12:28:56;9.10;;;4.23;;
5127;SDS011;2582;48.770;9.190;2023-05-07T12:31:22;10.13;;;4.93;;
5127;SDS011;2582;48.770;9.190;2023-05-07T12:33:50;9.33;;;4.20;;
5127;SDS011;2582;48.770;9.190;2023-05-07T12:36:16;5.10;;;3.20;;
5127;SDS011;2582;48.770;9.190;2023-05-07T12:38:41;5.87;;;4.20;;
5127;SDS011;2582;48.770;9.190;2023-05-07T12:41:08;7.33;;;4.50;;
5127;SDS011;2582;48.770;9.190;2023-05-07T12:43:35;7.80;;;4.17;;
5127;SDS011;2582;48.770;9.190;2023-05-07T12:46:01;11.70;;;4.93;;
5127;SDS011;2582;48.770;9.190;2023-05-07T12:48:29;7.77;;;4.77;;
5127;SDS011;2582;48.770;9.190;2023-05-07T12:50:56;10.50;;;5.23;;
5127;SDS011;2582;48.770;9.190;2023-05-07T12:53:23;5.30;;;3.90;;
5127;SDS011;2582;48.770;9.190;2023-05-07T12:55:51;8.60;;;3.20;;
5127;SDS011;2582;48.770;9.190;2023-05-07T12:58:19;6.30;;;3.50;;
5127;SDS011;2582;48.770;9.190;2023-05-07T13:00:55;5.67;;;3.97;;
5127;SDS011;2582;48.770;9.190;2023-05-07T13:05:51;5.40;;;3.43;;
5127;SDS011;2582;48.770;9.190;2023-05-07T13:08:30;7.40;;;2.93;;
5127;SDS011;2582;48.770;9.190;2023-05-07T13:10:57;10.93;;;4.40;;
5127;SDS011;2582;48.770;9.190;2023-05-07T13:13:25;8.00;;;3.60;;
5127;SDS011;2582;48.770;9.190;2023-05-07T13:15:50;8.97;;;4.30;;
5127;SDS011;2582;48.770;9.190;2023-05-07T13:18:16;10.53;;;4.10;;
5127;SDS011;2582;48.770;9.190;2023-05-07T13:20:42;8.77;;;3.40;;
5127;SDS011;2582;48.770;9.190;2023-05-07T13:23:08;5.13;;;2.30;;
5127;SDS011;2582;48.770;9.190;2023-05-07T13:25:33;2.50;;;2.30;;
5127;SDS011;2582;48.770;9.190;2023-05-07T13:27:59;5.13;;;2.13;;
5127;SDS011;2582;48.770;9.190;2023-05-07T13:30:25;4.37;;;2.70;;
5127;SDS011;2582;48.770;9.190;2023-05-07T13:32:51;3.30;;;2.73;;
5127;SDS011;2582;48.770;9.190;2023-05-07T13:35:18;7.37;;;2.80;;
5127;SDS011;2582;48.770;9.190;2023-05-07T13:37:44;4.80;;;3.20;;
5127;SDS011;2582;48.770;9.190;2023-05-07T13:40:10;4.80;;;2.63;;
5127;SDS011;2582;48.770;9.190;2023-05-07T13:42:36;5.30;;;2.67;;
5127;SDS011;2582;48.770;9.190;2023-05-07T13:45:01;4.53;;;2.90;;
5127;SDS011;2582;48.770;9.190;2023-05-07T13:47:29;3.20;;;1.83;;
5127;SDS011;2582;48.770;9.190;2023-05-07T13:49:55;6.90;;;2.80;;
5127;SDS011;2582;48.770;9.190;2023-05-07T13:52:21;3.57;;;2.40;;
5127;SDS011;2582;48.770;9.190;2023-05-07T13:54:46;5.33;;;2.83;;
5127;SDS011;2582;48.770;9.190;2023-05-07T13:57:12;4.17;;;2.93;;
5127;SDS011;2582;48.770;9.190;2023-05-07T13:59:37;3.23;;;2.17;;
5127;SDS011;2582;48.770;9.190;2023-05-07T14:02:03;4.67;;;2.63;;
5127;SDS011;2582;48.770;9.190;2023-05-07T14:04:30;5.33;;;2.43;;
5127;SDS011;2582;48.770;9.190;2023-05-07T14:06:55;4.33;;;2.17;;
5127;SDS011;2582;48.770;9.190;2023-05-07T14:09:21;4.03;;;2.70;;
5127;SDS011;2582;48.770;9.190;2023-05-07T14:11:46;3.43;;;2.77;;
5127;SDS011;2582;48.770;9.190;2023-05-07T14:14:16;3.53;;;2.90;;
5127;SDS011;2582;48.770;9.190;2023-05-07T14:16:42;5.23;;;3.27;;
5127;SDS011;2582;48.770;9.190;2023-05-07T14:19:07;3.60;;;3.00;;
5127;SDS011;2582;48.770;9.190;2023-05-07T14:21:33;2.77;;;2.53;;
5127;SDS011;2582;48.770;9.190;2023-05-07T14:23:58;3.60;;;2.80;;
5127;SDS011;2582;48.770;9.190;2023-05-07T14:26:25;5.63;;;3.00;;
5127;SDS011;2582;48.770;9.190;2023-05-07T14:28:52;5.37;;;3.27;;
5127;SDS011;2582;48.770;9.190;2023-05-07T14:31:19;3.20;;;2.90;;
5127;SDS011;2582;48.770;9.190;2023-05-07T14:33:45;5.63;;;3.57;;
5127;SDS011;2582;48.770;9.190;2023-05-07T14:36:11;4.30;;;2.70;;
5127;SDS011;2582;48.770;9.190;2023-05-07T14:38:37;2.67;;;2.47;;
5127;SDS011;2582;48.770;9.190;2023-05-07T14:41:03;2.97;;;2.67;;
5127;SDS011;2582;48.770;9.190;2023-05-07T14:43:28;2.93;;;2.40;;
5127;SDS011;2582;48.770;9.190;2023-05-07T14:45:54;2.40;;;2.20;;
5127;SDS011;2582;48.770;9.190;2023-05-07T14:48:19;3.00;;;2.20;;
5127;SDS011;2582;48.770;9.190;2023-05-07T14:50:46;3.03;;;2.77;;
5127;SDS011;2582;48.770;9.190;2023-05-07T14:53:13;4.63;;;2.50;;
5127;SDS011;2582;48.770;9.190;2023-05-07T14:55:38;2.77;;;2.33;;
5127;SDS011;2582;48.770;9.190;2023-05-07T14:58:04;2.33;;;2.10;;
5127;SDS011;2582;48.770;9.190;2023-05-07T15:00:30;2.87;;;2.47;;
5127;SDS011;2582;48.770;9.190;2023-05-07T15:03:00;2.70;;;1.93;;
5127;SDS011;2582;48.770;9.190;2023-05-07T15:05:33;2.23;;;1.73;;
5127;SDS011;2582;48.770;9.190;2023-05-07T15:07:58;2.63;;;2.27;;
5127;SDS011;2582;48.770;9.190;2023-05-07T15:10:25;1.97;;;1.80;;
5127;SDS011;2582;48.770;9.190;2023-05-07T15:12:51;2.70;;;1.60;;
5127;SDS011;2582;48.770;9.190;2023-05-07T15:15:16;2.50;;;1.60;;
5127;SDS011;2582;48.770;9.190;2023-05-07T15:17:42;1.53;;;1.40;;
5127;SDS011;2582;48.770;9.190;2023-05-07T15:20:07;3.27;;;1.90;;
5127;SDS011;2582;48.770;9.190;2023-05-07T15:22:33;1.63;;;1.43;;
5127;SDS011;2582;48.770;9.190;2023-05-07T15:25:01;2.30;;;1.60;;
5127;SDS011;2582;48.770;9.190;2023-05-07T15:27:26;2.67;;;1.60;;
5127;SDS011;2582;48.770;9.190;2023-05-07T15:29:52;1.63;;;1.53;;